Time;durP1;ratioP1;P1;durP2;ratioP2;P2;SDS_P1;SDS_P2;PMS_P1;PMS_P2;Temp;Humidity;BMP_temperature;BMP_pressure;BME280_temperature;BME280_humidity;BME280_pressure;Samples;Min_cycle;Max_cycle;Signal;HPM_P1;HPM_P2
2022/07/16 00:01:52;;;;;;;10.27;3.92;;;;;;;12.93;68.23;99426.78;4902102;29;20086;-82
2022/07/16 00:04:18;;;;;;;11.40;4.13;;;;;;;13.45;68.28;99519.63;4903076;29;20040;-85
2022/07/16 00:06:45;;;;;;;9.60;3.58;;;;;;;13.23;68.29;99489.63;4887983;29;20139;-86
2022/07/16 00:09:12;;;;;;;10.77;3.80;;;;;;;13.07;68.23;99468.25;4902771;29;20405;-87
2022/07/16 00:11:41;;;;;;;11.75;3.97;;;;;;;12.25;68.07;99333.59;4887806;29;20052;-84
2022/07/16 00:14:07;;;;;;;9.82;3.53;;;;;;;12.93;68.44;99442.44;4888367;29;20385;-87
2022/07/16 00:16:33;;;;;;;9.02;3.90;;;;;;;12.72;68.51;99415.13;4903674;29;20474;-86
2022/07/16 00:21:46;;;;;;;7.53;3.53;;;;;;;12.67;68.42;99418.75;4907345;29;20044;-86
2022/07/16 00:24:13;;;;;;;8.85;3.20;;;;;;;12.85;68.73;99449.63;4910699;29;20051;-88
2022/07/16 00:26:40;;;;;;;7.93;3.53;;;;;;;13.08;68.53;99503.06;4919939;29;20047;-86
2022/07/16 00:29:06;;;;;;;7.03;3.90;;;;;;;13.18;68.63;99515.00;4917313;29;20061;-85
2022/07/16 00:31:32;;;;;;;6.32;3.38;;;;;;;12.99;68.65;99492.81;4907424;29;20064;-84
2022/07/16 00:33:59;;;;;;;9.13;3.88;;;;;;;13.21;68.80;99527.16;4906499;29;20059;-86
2022/07/16 00:36:25;;;;;;;8.88;3.40;;;;;;;12.51;69.13;99424.28;4903808;29;20116;-88
2022/07/16 00:38:52;;;;;;;9.10;4.03;;;;;;;12.79;68.90;99475.88;4905212;29;20044;-87
2022/07/16 00:41:21;;;;;;;10.57;3.60;;;;;;;11.86;69.05;99322.25;4887837;29;20050;-85
2022/07/16 00:43:53;;;;;;;6.85;3.42;;;;;;;12.75;68.94;99482.94;4887718;29;20041;-84
2022/07/16 00:46:19;;;;;;;;;;;;;;;13.10;69.06;99536.06;4872974;29;20040;-86
2022/07/16 00:48:46;;;;;;;7.57;3.53;;;;;;;13.08;69.03;99540.47;4903105;29;19930;-85
2022/07/16 00:51:14;;;;;;;8.73;3.42;;;;;;;12.78;69.03;99490.69;4902949;29;20041;-85
2022/07/16 00:53:42;;;;;;;7.13;3.97;;;;;;;12.71;69.37;99472.56;4903034;29;20096;-84
2022/07/16 00:56:14;;;;;;;8.00;3.67;;;;;;;12.69;69.32;99488.28;4901893;29;20049;-84
2022/07/16 00:58:40;;;;;;;;;;;;;;;13.02;69.43;99531.94;4887884;29;20354;-84
2022/07/16 01:01:08;;;;;;;11.50;3.85;;;;;;;12.61;69.26;99467.56;4903654;29;20019;-85
2022/07/16 01:03:35;;;;;;;9.35;3.75;;;;;;;11.88;69.31;99358.69;4874054;29;20069;-86
2022/07/16 01:06:06;;;;;;;9.15;4.28;;;;;;;12.50;69.48;99482.59;4892697;29;20052;-86
2022/07/16 01:08:34;;;;;;;10.63;4.15;;;;;;;12.45;69.20;99479.25;4888523;29;20447;-86
2022/07/16 01:11:02;;;;;;;13.45;4.85;;;;;;;12.34;69.73;99454.25;4906144;29;20077;-85
2022/07/16 01:13:28;;;;;;;12.00;3.75;;;;;;;12.85;69.80;99532.31;4902609;29;20050;-86
2022/07/16 01:15:57;;;;;;;8.00;3.70;;;;;;;11.81;69.74;99390.97;4885083;29;20145;-86
2022/07/16 01:18:24;;;;;;;8.90;4.47;;;;;;;12.40;70.02;99471.50;4901906;29;20426;-85
2022/07/16 01:20:50;;;;;;;11.57;4.40;;;;;;;12.45;69.75;99489.69;4886306;29;20063;-85
2022/07/16 01:23:21;;;;;;;10.18;3.90;;;;;;;11.65;69.83;99349.59;4886966;29;20047;-85
2022/07/16 01:25:48;;;;;;;7.43;3.90;;;;;;;12.88;70.11;99554.00;4886748;29;20544;-86
2022/07/16 01:28:16;;;;;;;11.73;4.35;;;;;;;12.90;69.99;99549.63;4905059;29;20104;-87
2022/07/16 01:30:42;;;;;;;7.88;4.05;;;;;;;12.52;70.04;99487.81;4889526;29;20048;-86
2022/07/16 01:33:33;;;;;;;8.70;4.35;;;;;;;12.85;70.18;99538.41;4873128;29;20048;-83
2022/07/16 01:36:03;;;;;;;10.73;3.58;;;;;;;12.31;70.19;99448.25;4888672;29;20040;-86
2022/07/16 01:38:29;;;;;;;10.32;4.25;;;;;;;12.29;70.15;99445.66;4904674;29;20512;-84
2022/07/16 01:40:56;;;;;;;9.80;4.25;;;;;;;12.52;70.16;99501.69;4871749;29;20048;-85
2022/07/16 01:43:25;;;;;;;11.40;4.05;;;;;;;12.44;70.31;99467.09;4902445;29;20081;-83
2022/07/16 01:45:52;;;;;;;9.93;3.88;;;;;;;12.19;70.27;99438.94;4902400;29;20062;-85
2022/07/16 01:48:22;;;;;;;9.10;3.67;;;;;;;12.65;70.28;99495.34;4901967;29;20041;-87
2022/07/16 01:50:49;;;;;;;6.55;3.33;;;;;;;12.81;70.21;99528.91;4901859;29;20080;-85
2022/07/16 01:53:16;;;;;;;10.00;3.65;;;;;;;12.51;70.53;99484.31;4903656;29;20044;-86
2022/07/16 01:55:43;;;;;;;11.35;3.38;;;;;;;12.62;70.29;99484.97;4904190;29;20064;-87
2022/07/16 01:58:11;;;;;;;7.60;3.20;;;;;;;13.19;70.38;99579.41;4875576;29;20047;-87
2022/07/16 02:00:44;;;;;;;9.48;3.95;;;;;;;12.70;70.20;99482.16;4906097;29;20069;-85
2022/07/16 02:03:12;;;;;;;7.40;3.45;;;;;;;12.64;70.22;99483.16;4887159;29;20188;-87
2022/07/16 02:05:39;;;;;;;10.93;3.80;;;;;;;12.89;70.26;99513.06;4901680;29;20049;-85
2022/07/16 02:08:06;;;;;;;7.13;4.00;;;;;;;12.69;70.26;99474.38;4890192;29;20036;-83
2022/07/16 02:10:32;;;;;;;8.25;3.80;;;;;;;13.36;70.30;99573.81;4908210;29;20049;-84
2022/07/16 02:13:01;;;;;;;7.70;3.42;;;;;;;12.99;70.16;99509.38;4905421;29;20045;-84
2022/07/16 02:15:47;;;;;;;7.55;3.50;;;;;;;12.86;70.09;99487.03;4877238;29;20048;-88
2022/07/16 02:18:13;;;;;;;8.50;3.67;;;;;;;12.99;70.31;99487.59;4904538;29;20044;-84
2022/07/16 02:20:40;;;;;;;7.07;3.30;;;;;;;12.98;70.12;99507.66;4893132;29;20063;-86
2022/07/16 02:23:06;;;;;;;12.43;3.47;;;;;;;12.30;70.34;99373.47;4913276;29;20044;-87
2022/07/16 02:25:35;;;;;;;6.72;3.53;;;;;;;13.63;70.14;99586.25;4941921;23;20049;-88
2022/07/16 02:28:08;;;;;;;10.80;3.45;;;;;;;12.95;70.00;99464.16;4871210;29;20057;-87
2022/07/16 02:30:46;;;;;;;8.77;3.67;;;;;;;13.09;69.92;99471.66;4873706;29;20093;-88
2022/07/16 02:33:26;;;;;;;8.70;3.53;;;;;;;13.86;69.73;99607.44;4864898;29;20048;-89
2022/07/16 02:35:56;;;;;;;10.60;3.70;;;;;;;13.73;69.68;99559.00;4863777;29;20041;-90
2022/07/16 02:38:22;;;;;;;6.90;3.28;;;;;;;13.05;69.51;99438.69;4863428;29;20090;-87
2022/07/16 02:40:51;;;;;;;7.47;3.30;;;;;;;12.70;69.51;99374.25;4862114;29;20096;-87
2022/07/16 02:43:18;;;;;;;10.43;3.50;;;;;;;13.51;69.56;99496.81;4881586;29;20456;-87
2022/07/16 02:45:45;;;;;;;9.15;3.58;;;;;;;13.52;69.42;99479.34;4890075;29;20144;-83
2022/07/16 02:48:12;;;;;;;9.02;3.70;;;;;;;14.07;69.28;99563.31;4878077;29;20305;-86
2022/07/16 02:50:39;;;;;;;12.35;3.50;;;;;;;13.41;69.17;99429.97;4891640;29;20040;-85
2022/07/16 02:53:05;;;;;;;9.30;3.75;;;;;;;13.76;68.98;99472.63;4862455;29;20059;-86
2022/07/16 02:55:32;;;;;;;6.57;3.53;;;;;;;13.93;68.86;99503.53;4877184;29;20056;-88
2022/07/16 02:57:58;;;;;;;10.10;3.70;;;;;;;14.43;69.05;99552.75;4857273;29;20545;-85
2022/07/16 03:00:25;;;;;;;10.25;3.45;;;;;;;14.28;68.81;99519.13;4861218;29;20059;-86
2022/07/16 03:02:54;;;;;;;6.25;3.55;;;;;;;14.12;68.63;99488.19;4859646;29;20042;-86
2022/07/16 03:05:21;;;;;;;8.57;3.35;;;;;;;14.91;68.35;99602.88;4858412;29;21447;-88
2022/07/16 03:07:47;;;;;;;11.05;3.65;;;;;;;14.59;68.59;99523.50;4858399;29;20037;-86
2022/07/16 03:10:14;;;;;;;9.27;3.13;;;;;;;15.09;68.19;99587.53;4864216;29;20100;-87
2022/07/16 03:12:41;;;;;;;4.28;3.05;;;;;;;14.24;67.68;99437.25;4882720;29;20041;-85
2022/07/16 03:15:12;;;;;;;6.35;3.75;;;;;;;14.95;67.90;99528.53;4888788;29;20120;-84
2022/07/16 03:17:40;;;;;;;6.78;3.20;;;;;;;15.02;67.45;99537.03;4873955;29;20054;-87
2022/07/16 03:20:07;;;;;;;8.98;3.50;;;;;;;14.90;67.29;99496.38;4856112;29;20041;-84
2022/07/16 03:22:34;;;;;;;12.18;3.50;;;;;;;15.55;67.10;99578.19;4849176;29;20145;-86
2022/07/16 03:25:00;;;;;;;6.00;3.42;;;;;;;15.81;66.88;99610.53;4876692;29;20066;-87
2022/07/16 03:27:26;;;;;;;10.77;3.55;;;;;;;15.36;66.40;99521.09;4859423;29;20034;-85
2022/07/16 03:29:53;;;;;;;6.78;3.40;;;;;;;15.57;66.50;99536.16;4851090;29;20049;-84
2022/07/16 03:32:22;;;;;;;5.75;2.90;;;;;;;15.96;66.04;99586.47;4871622;29;20145;-87
2022/07/16 03:34:48;;;;;;;5.78;2.83;;;;;;;15.67;65.56;99527.06;4851913;29;20442;-86
2022/07/16 03:37:15;;;;;;;6.25;2.90;;;;;;;16.20;65.56;99591.75;4873965;29;20045;-88
2022/07/16 03:39:51;;;;;;;6.18;3.00;;;;;;;15.42;65.16;99432.66;4856590;29;20069;-86
2022/07/16 03:42:17;;;;;;;7.35;2.40;;;;;;;16.05;65.03;99513.56;4867381;29;20128;-85
2022/07/16 03:44:43;;;;;;;3.88;2.90;;;;;;;16.77;64.72;99615.09;4853450;29;20045;-84
2022/07/16 03:47:09;;;;;;;9.40;2.92;;;;;;;16.23;64.49;99507.63;4881999;29;20078;-86
2022/07/16 03:49:35;;;;;;;6.75;3.17;;;;;;;17.00;63.94;99619.47;4859943;29;20053;-86
2022/07/16 03:52:03;;;;;;;9.20;3.08;;;;;;;16.71;63.71;99537.38;4859323;29;20570;-84
2022/07/16 03:54:32;;;;;;;7.93;3.75;;;;;;;16.13;63.16;99417.03;4872019;29;20045;-87
2022/07/16 03:57:02;;;;;;;7.55;3.00;;;;;;;17.42;63.12;99599.47;4871349;29;20077;-86
2022/07/16 04:05:04;;;;;;;5.82;2.88;;;;;;;17.68;61.68;99621.22;4789217;29;20272;-88
2022/07/16 04:08:16;;;;;;;8.02;3.05;;;;;;;16.75;61.47;99461.91;4759987;30;21089;-86
2022/07/16 04:12:01;;;;;;;;;;;;;;;;;;;;;
2022/07/16 04:18:12;;;;;;;4.72;2.70;;;;;;;17.30;60.08;99466.72;4920377;23;20076;-87
2022/07/16 04:20:42;;;;;;;11.40;3.42;;;;;;;18.43;60.15;99633.88;4879516;29;20052;-89
2022/07/16 04:23:12;;;;;;;7.63;3.60;;;;;;;18.12;59.68;99572.06;4894604;29;20043;-86
2022/07/16 04:25:39;;;;;;;11.27;3.03;;;;;;;18.31;59.24;99575.59;4895403;29;20152;-84
2022/07/16 04:28:06;;;;;;;9.07;3.67;;;;;;;18.60;59.15;99594.50;4898683;29;20051;-87
2022/07/16 04:30:33;;;;;;;6.65;3.00;;;;;;;18.78;58.52;99597.22;4880614;29;20041;-86
2022/07/16 04:32:59;;;;;;;9.45;3.40;;;;;;;18.91;58.08;99608.03;4899477;29;20068;-85
2022/07/16 04:35:25;;;;;;;7.30;2.85;;;;;;;18.69;57.96;99555.47;4897786;29;20048;-86
2022/07/16 04:37:51;;;;;;;5.13;3.28;;;;;;;18.89;57.62;99578.25;4911988;29;20104;-83
2022/07/16 04:40:19;;;;;;;8.13;3.20;;;;;;;18.81;57.03;99531.19;4914071;29;20458;-82
2022/07/16 04:42:45;;;;;;;5.80;2.85;;;;;;;19.06;56.97;99564.31;4878686;29;20036;-85
2022/07/16 04:45:12;;;;;;;10.43;3.20;;;;;;;19.23;56.56;99577.53;4910720;29;20104;-82
2022/07/16 04:47:39;;;;;;;4.88;2.60;;;;;;;19.67;56.31;99634.31;4881942;29;20040;-81
2022/07/16 04:50:06;;;;;;;3.25;2.40;;;;;;;19.45;55.74;99578.25;4897220;29;20055;-84
2022/07/16 04:52:36;;;;;;;6.82;2.60;;;;;;;19.35;55.72;99520.69;4877944;29;20496;-83
2022/07/16 04:55:03;;;;;;;4.03;1.70;;;;;;;20.22;55.21;99643.06;4899002;29;20397;-84
2022/07/16 04:57:29;;;;;;;5.35;2.00;;;;;;;19.98;54.52;99595.00;4920613;29;20044;-82
2022/07/16 04:59:55;;;;;;;4.85;1.95;;;;;;;20.12;53.79;99587.22;4887373;29;20048;-81
2022/07/16 05:05:10;;;;;;;5.25;2.30;;;;;;;20.46;52.48;99577.50;4882252;29;20072;-82
2022/07/16 05:07:36;;;;;;;5.65;2.33;;;;;;;20.51;52.38;99573.78;4876986;29;20044;-82
2022/07/16 05:10:03;;;;;;;4.53;2.20;;;;;;;20.54;51.73;99587.66;4862028;29;20044;-82
2022/07/16 05:12:30;;;;;;;5.88;2.53;;;;;;;20.57;52.08;99579.59;4890798;29;20517;-84
2022/07/16 05:14:56;;;;;;;7.43;2.22;;;;;;;21.07;51.73;99635.09;4898618;29;20075;-84
2022/07/16 05:17:25;;;;;;;4.72;2.40;;;;;;;20.67;51.23;99542.94;4900869;29;20048;-81
2022/07/16 05:19:51;;;;;;;4.93;2.70;;;;;;;20.94;50.80;99578.56;4903556;29;20093;-83
2022/07/16 05:22:17;;;;;;;4.78;2.65;;;;;;;21.33;50.64;99609.00;4899833;29;20452;-86
2022/07/16 05:24:47;;;;;;;6.57;2.10;;;;;;;21.28;49.88;99614.56;4882593;29;20036;-83
2022/07/16 05:27:13;;;;;;;6.70;2.55;;;;;;;20.71;49.70;99517.19;4891226;29;20516;-85
2022/07/16 05:29:39;;;;;;;4.40;1.70;;;;;;;20.79;50.04;99543.22;4902427;29;20028;-86
2022/07/16 05:32:06;;;;;;;5.22;1.95;;;;;;;21.10;49.97;99557.38;4918973;28;20063;-84
2022/07/16 05:34:35;;;;;;;5.63;2.40;;;;;;;21.47;48.90;99592.31;4877271;29;20544;-86
2022/07/16 05:37:02;;;;;;;5.57;2.17;;;;;;;21.00;48.97;99505.00;4880525;29;20053;-86
2022/07/16 05:39:28;;;;;;;4.43;1.70;;;;;;;21.52;48.61;99558.47;4897074;29;20051;-83
2022/07/16 05:41:57;;;;;;;5.68;1.70;;;;;;;21.58;48.01;99571.38;4882264;29;20081;-85
2022/07/16 05:44:23;;;;;;;6.43;1.88;;;;;;;21.45;47.80;99546.56;4865933;29;20095;-84
2022/07/16 05:46:50;;;;;;;13.70;1.80;;;;;;;22.20;47.79;99625.19;4878889;29;20040;-85
2022/07/16 05:49:16;;;;;;;5.53;1.58;;;;;;;22.22;47.71;99578.25;4899717;29;20080;-84
2022/07/16 05:51:42;;;;;;;6.20;1.63;;;;;;;22.52;47.23;99490.69;4872395;29;20499;-83
2022/07/16 05:54:11;;;;;;;5.15;1.20;;;;;;;24.71;46.15;99619.66;4868757;29;20047;-84
2022/07/16 05:56:38;;;;;;;2.70;1.50;;;;;;;26.98;43.18;99638.28;4874156;29;20576;-84
2022/07/16 05:59:04;;;;;;;3.55;1.13;;;;;;;28.86;40.52;99636.03;4896476;29;20114;-87
2022/07/16 06:01:31;;;;;;;3.75;1.13;;;;;;;30.58;37.19;99620.38;4894383;29;20051;-86
2022/07/16 06:04:07;;;;;;;2.10;1.40;;;;;;;32.15;34.30;99594.22;4887225;29;20044;-85
2022/07/16 06:06:34;;;;;;;3.30;1.50;;;;;;;32.83;32.59;99540.53;4902760;29;20049;-87
2022/07/16 06:09:00;;;;;;;4.68;1.45;;;;;;;34.39;30.91;99596.34;4886040;29;20060;-83
2022/07/16 06:11:28;;;;;;;2.03;1.30;;;;;;;34.80;29.33;99527.78;4891461;29;20040;-86
2022/07/16 06:13:54;;;;;;;2.90;1.30;;;;;;;35.72;28.20;99593.72;4901979;29;20045;-86
2022/07/16 06:16:22;;;;;;;3.65;1.00;;;;;;;36.53;27.26;99572.47;4888832;29;20075;-86
2022/07/16 06:18:49;;;;;;;3.55;1.48;;;;;;;37.53;25.31;99614.25;4889254;29;20052;-85
2022/07/16 06:21:15;;;;;;;1.50;1.15;;;;;;;38.00;24.91;99621.97;4905208;29;20127;-84
2022/07/16 06:23:41;;;;;;;3.13;1.30;;;;;;;37.87;23.47;99581.97;4866280;29;21422;-85
2022/07/16 06:26:08;;;;;;;4.60;1.30;;;;;;;38.16;23.70;99590.97;4878777;29;20036;-85
2022/07/16 06:28:34;;;;;;;2.60;1.20;;;;;;;38.57;22.76;99600.16;4890284;29;20172;-84
2022/07/16 06:31:00;;;;;;;2.90;1.30;;;;;;;39.09;22.07;99588.88;4892404;29;20088;-85
2022/07/16 06:33:26;;;;;;;1.85;1.20;;;;;;;39.98;21.21;99624.13;4866148;29;20059;-84
2022/07/16 06:35:53;;;;;;;3.65;1.25;;;;;;;40.47;20.80;99579.22;4884366;29;20048;-85
2022/07/16 06:38:19;;;;;;;5.03;1.58;;;;;;;40.43;20.42;99545.28;4887079;29;20108;-84
2022/07/16 06:40:46;;;;;;;2.85;1.27;;;;;;;40.51;19.86;99547.72;4893026;29;20079;-87
2022/07/16 06:43:12;;;;;;;2.20;1.20;;;;;;;40.76;19.83;99601.53;4885919;29;20111;-84
2022/07/16 06:45:46;;;;;;;3.67;1.30;;;;;;;41.30;19.08;99603.97;4901938;29;20052;-87
2022/07/16 06:48:12;;;;;;;3.10;1.20;;;;;;;41.49;19.14;99591.22;4862615;29;20037;-89
2022/07/16 06:50:42;;;;;;;3.50;1.33;;;;;;;41.80;18.64;99594.16;4875337;29;20056;-86
2022/07/16 06:53:08;;;;;;;2.15;1.20;;;;;;;42.02;18.24;99569.19;4903557;29;20629;-85
2022/07/16 06:55:34;;;;;;;3.90;1.17;;;;;;;42.27;18.23;99575.38;4885713;29;20055;-84
2022/07/16 06:58:04;;;;;;;3.53;1.50;;;;;;;41.64;17.78;99528.13;4885932;29;20066;-87
2022/07/16 07:01:01;;;;;;;2.40;1.35;;;;;;;41.79;17.35;99518.75;4877018;29;20160;-87
2022/07/16 07:03:43;;;;;;;3.10;1.17;;;;;;;42.56;17.61;99581.16;4873045;29;20502;-85
2022/07/16 07:06:30;;;;;;;2.65;1.30;;;;;;;42.75;17.56;99561.97;4873091;29;20051;-85
2022/07/16 07:09:12;;;;;;;2.00;1.30;;;;;;;43.26;17.04;99542.56;4877139;29;20052;-83
2022/07/16 07:12:13;;;;;;;;;;;;;;;;;;;;;
2022/07/16 07:14:46;;;;;;;2.47;1.13;;;;;;;43.41;15.90;99570.28;4906017;29;20111;-86
2022/07/16 07:17:15;;;;;;;3.55;1.10;;;;;;;43.34;15.90;99602.44;4878586;29;20567;-89
2022/07/16 07:19:51;;;;;;;3.00;1.30;;;;;;;42.93;15.82;99535.66;4888203;29;20833;-86
2022/07/16 07:22:37;;;;;;;2.33;1.27;;;;;;;43.24;16.11;99619.44;4857016;29;20090;-86
2022/07/16 07:25:36;;;;;;;3.53;1.50;;;;;;;43.11;16.18;99573.06;4800913;29;20114;-87
2022/07/16 07:28:02;;;;;;;2.40;1.65;;;;;;;43.71;15.86;99606.88;4818490;29;20069;-85
2022/07/16 07:30:29;;;;;;;3.67;1.55;;;;;;;44.39;15.31;99597.19;4843895;29;20048;-84
2022/07/16 07:32:56;;;;;;;2.53;1.40;;;;;;;45.40;14.66;99616.13;4877256;29;20424;-86
2022/07/16 07:35:31;;;;;;;4.88;1.30;;;;;;;45.46;14.89;99570.41;4906058;29;20487;-83
2022/07/16 07:38:34;;;;;;;1.45;1.20;;;;;;;45.62;13.97;99615.38;4872809;29;20056;-87
2022/07/16 07:41:06;;;;;;;1.65;1.13;;;;;;;44.83;14.74;99552.81;4862074;29;20060;-85
2022/07/16 07:44:07;;;;;;;2.60;1.23;;;;;;;45.60;14.09;99629.38;4888294;29;20131;-86
2022/07/16 07:49:35;;;;;;;3.80;1.35;;;;;;;46.19;13.51;99528.31;4888390;29;20056;-86
2022/07/16 07:52:18;;;;;;;2.08;1.50;;;;;;;45.67;14.03;99610.00;4889743;29;20114;-86
2022/07/16 07:54:45;;;;;;;4.93;1.40;;;;;;;45.41;13.50;99601.34;4906643;29;20087;-86
2022/07/16 07:57:11;;;;;;;4.18;1.05;;;;;;;45.33;13.21;99575.13;4878479;29;20148;-86
2022/07/16 07:59:38;;;;;;;2.58;1.50;;;;;;;44.42;13.79;99597.81;4895500;29;20040;-86
2022/07/16 08:02:04;;;;;;;2.58;1.20;;;;;;;44.61;13.98;99612.19;4911338;29;20035;-87
2022/07/16 08:04:33;;;;;;;1.92;1.20;;;;;;;44.95;13.71;99593.13;4910271;29;20068;-85
2022/07/16 08:06:59;;;;;;;2.90;1.13;;;;;;;44.53;13.89;99558.56;4901874;29;20036;-86
2022/07/16 08:09:35;;;;;;;4.93;1.42;;;;;;;44.76;13.47;99552.16;4890322;29;20108;-87
2022/07/16 08:12:02;;;;;;;2.42;1.30;;;;;;;45.07;13.86;99573.84;4925089;28;20152;-89
2022/07/16 08:14:31;;;;;;;3.95;1.27;;;;;;;45.34;13.54;99585.03;4887839;29;20044;-87
2022/07/16 08:16:58;;;;;;;3.75;1.40;;;;;;;45.11;13.95;99566.78;4899801;29;20062;-87
2022/07/16 08:19:25;;;;;;;3.63;1.58;;;;;;;45.38;13.52;99588.09;4875841;29;20060;-83
2022/07/16 08:21:51;;;;;;;4.25;1.63;;;;;;;45.08;13.49;99631.22;4902972;29;20036;-85
2022/07/16 08:28:17;;;;;;;3.55;1.30;;;;;;;45.80;13.16;99584.91;4923485;28;20039;-85
2022/07/16 08:30:44;;;;;;;1.88;1.17;;;;;;;46.08;13.27;99640.03;4889280;29;20036;-88
2022/07/16 08:33:43;;;;;;;3.67;1.38;;;;;;;45.80;12.69;99619.81;4885226;29;20492;-85
2022/07/16 08:36:15;;;;;;;4.47;1.65;;;;;;;43.45;13.21;99529.63;4920020;29;20052;-87
2022/07/16 08:38:41;;;;;;;3.83;1.30;;;;;;;41.28;14.65;99553.41;4918805;29;20056;-85
2022/07/16 08:41:14;;;;;;;6.25;1.50;;;;;;;41.78;15.25;99558.88;4903334;29;20059;-83
2022/07/16 08:46:40;;;;;;;3.55;1.48;;;;;;;43.91;13.89;99536.16;4922902;29;20111;-85
2022/07/16 08:49:13;;;;;;;2.15;1.20;;;;;;;43.43;13.84;99545.44;4887839;29;20053;-86
2022/07/16 08:51:39;;;;;;;3.20;1.42;;;;;;;43.39;13.90;99556.00;4882237;29;20046;-86
2022/07/16 08:54:09;;;;;;;2.80;1.17;;;;;;;42.45;14.29;99620.22;4888328;29;20048;-86
2022/07/16 08:57:01;;;;;;;2.15;1.05;;;;;;;39.90;15.71;99527.19;4874011;29;20076;-87
2022/07/16 08:59:28;;;;;;;4.65;1.30;;;;;;;39.40;16.58;99618.25;4855995;29;20044;-86
2022/07/16 09:01:54;;;;;;;11.25;1.33;;;;;;;40.06;16.55;99564.00;4867780;29;20139;-88
2022/07/16 09:04:26;;;;;;;2.05;1.27;;;;;;;41.20;16.08;99540.88;4887645;29;20044;-86
2022/07/16 09:07:01;;;;;;;2.92;1.20;;;;;;;40.98;15.63;99533.03;4874269;29;20095;-87
2022/07/16 09:09:28;;;;;;;2.90;1.08;;;;;;;41.87;15.25;99540.28;4889302;29;20611;-83
2022/07/16 09:12:08;;;;;;;1.60;1.00;;;;;;;42.81;14.29;99563.81;4900539;29;20040;-83
2022/07/16 09:15:02;;;;;;;3.60;1.20;;;;;;;42.60;14.37;99620.66;4870057;29;20055;-82
2022/07/16 09:18:23;;;;;;;3.65;1.50;;;;;;;40.30;15.32;99561.66;4862136;29;20131;-83
2022/07/16 09:20:58;;;;;;;1.95;1.13;;;;;;;40.05;15.76;99586.84;4902766;29;20052;-81
2022/07/16 09:23:34;;;;;;;3.65;1.27;;;;;;;41.15;14.94;99630.75;4908032;29;20045;-81
2022/07/16 09:26:03;;;;;;;2.45;1.10;;;;;;;40.94;15.08;99595.34;4915321;29;20276;-82
2022/07/16 09:28:47;;;;;;;4.72;1.20;;;;;;;41.51;14.91;99588.28;4901125;29;20036;-85
2022/07/16 09:31:39;;;;;;;2.38;1.40;;;;;;;41.90;15.36;99631.88;4918325;29;20108;-80
2022/07/16 09:34:13;;;;;;;2.33;1.30;;;;;;;42.02;15.12;99556.34;4861216;29;20036;-83
2022/07/16 09:36:59;;;;;;;1.67;1.20;;;;;;;41.56;15.04;99566.66;4909744;29;20048;-84
2022/07/16 09:39:30;;;;;;;2.40;1.30;;;;;;;41.14;15.75;99624.44;4881555;29;20063;-86
2022/07/16 09:41:57;;;;;;;3.97;1.38;;;;;;;41.15;15.11;99590.66;4911371;29;20051;-84
2022/07/16 09:44:34;;;;;;;3.15;1.38;;;;;;;41.75;15.71;99641.22;4883375;29;20412;-83
2022/07/16 09:47:09;;;;;;;1.65;1.10;;;;;;;42.00;15.22;99599.44;4893907;29;20115;-86
2022/07/16 09:49:37;;;;;;;1.83;1.20;;;;;;;41.64;15.44;99629.13;4903668;29;20048;-87
2022/07/16 09:52:21;;;;;;;1.73;1.10;;;;;;;41.65;14.97;99608.97;4892708;29;20048;-87
2022/07/16 09:54:55;;;;;;;2.58;1.30;;;;;;;41.99;14.48;99595.03;4892767;29;20111;-86
2022/07/16 09:57:25;;;;;;;3.40;1.58;;;;;;;41.71;14.93;99601.81;4892075;29;20059;-87
2022/07/16 09:59:54;;;;;;;2.90;1.48;;;;;;;41.85;15.29;99630.66;4906265;29;20040;-84
2022/07/16 10:02:36;;;;;;;2.67;1.35;;;;;;;42.45;15.02;99621.03;4891221;29;20147;-86
2022/07/16 10:05:02;;;;;;;3.70;1.60;;;;;;;40.30;15.26;99567.09;4889164;29;20041;-87
2022/07/16 10:07:44;;;;;;;3.13;1.40;;;;;;;38.72;16.10;99527.50;4906725;29;20527;-86
2022/07/16 10:10:12;;;;;;;3.35;1.40;;;;;;;38.30;16.62;99496.78;4889147;29;20504;-84
2022/07/16 10:12:39;;;;;;;1.92;1.08;;;;;;;39.60;16.88;99552.97;4887627;29;20052;-85
2022/07/16 10:15:23;;;;;;;4.53;1.27;;;;;;;40.08;16.61;99583.69;4876455;29;20066;-85
2022/07/16 10:17:49;;;;;;;1.80;1.60;;;;;;;39.88;16.39;99578.28;4889536;29;20155;-85
2022/07/16 10:20:20;;;;;;;2.28;1.20;;;;;;;40.43;16.35;99579.84;4875456;29;20135;-84
2022/07/16 10:22:50;;;;;;;3.90;1.20;;;;;;;39.75;16.22;99622.69;4888788;29;20044;-80
2022/07/16 10:25:25;;;;;;;4.05;1.35;;;;;;;38.30;17.08;99627.16;4869052;29;20052;-83
2022/07/16 10:27:53;;;;;;;2.25;1.20;;;;;;;38.72;17.39;99575.56;4906016;29;20064;-84
2022/07/16 10:30:22;;;;;;;4.13;1.20;;;;;;;40.28;16.82;99616.34;4872087;29;20040;-85
2022/07/16 10:33:02;;;;;;;3.15;1.25;;;;;;;39.78;15.67;99605.94;4879480;29;20058;-83
2022/07/16 10:35:30;;;;;;;3.63;1.25;;;;;;;37.48;17.22;99580.63;4889427;29;20050;-82
2022/07/16 10:38:07;;;;;;;2.97;1.30;;;;;;;35.43;18.62;99600.69;4873689;29;20044;-78
2022/07/16 10:40:33;;;;;;;1.88;1.27;;;;;;;34.32;19.62;99602.56;4858562;29;20071;-80
2022/07/16 10:43:09;;;;;;;1.38;1.27;;;;;;;33.28;21.05;99620.13;4891077;29;20052;-78
2022/07/16 10:45:56;;;;;;;2.97;1.30;;;;;;;32.43;21.96;99629.91;4910652;29;20072;-80
2022/07/16 10:48:24;;;;;;;1.35;1.02;;;;;;;31.71;22.73;99621.97;4871415;29;20041;-82
2022/07/16 10:51:09;;;;;;;3.40;1.20;;;;;;;31.15;23.67;99630.16;4885725;29;20040;-83
2022/07/16 10:53:57;;;;;;;5.40;1.27;;;;;;;30.72;23.93;99635.16;4902117;29;20072;-80
2022/07/16 10:56:45;;;;;;;1.60;1.10;;;;;;;30.03;24.21;99642.53;4902179;29;20079;-82
2022/07/16 10:59:21;;;;;;;1.35;1.00;;;;;;;29.25;24.90;99595.09;4902847;29;20047;-80
2022/07/16 11:01:58;;;;;;;2.60;1.10;;;;;;;29.04;25.26;99643.41;4877313;29;20063;-84
2022/07/16 11:04:33;;;;;;;2.80;1.10;;;;;;;28.76;25.80;99646.72;4902813;29;20134;-79
2022/07/16 11:07:01;;;;;;;2.58;1.00;;;;;;;28.04;26.42;99584.19;4902701;29;20519;-79
2022/07/16 11:09:32;;;;;;;1.33;0.95;;;;;;;27.91;26.76;99636.06;4904405;29;20052;-81
2022/07/16 11:12:13;;;;;;;2.20;1.15;;;;;;;27.69;27.56;99628.97;4887829;29;20071;-82
2022/07/16 11:14:42;;;;;;;4.80;1.25;;;;;;;27.56;27.86;99621.13;4862725;29;20057;-81
2022/07/16 11:17:12;;;;;;;1.92;1.10;;;;;;;27.38;27.83;99644.00;4904725;29;20044;-82
2022/07/16 11:19:48;;;;;;;4.15;2.50;;;;;;;27.33;27.96;99628.38;4875230;29;20061;-82
2022/07/16 11:22:20;;;;;;;1.67;1.23;;;;;;;27.35;28.03;99647.78;4884543;29;20052;-82
2022/07/16 11:24:52;;;;;;;7.28;5.50;;;;;;;27.39;28.20;99651.03;4908046;29;20401;-79
2022/07/16 11:27:24;;;;;;;2.17;1.83;;;;;;;26.84;28.52;99518.41;4886552;29;20099;-80
2022/07/16 11:29:58;;;;;;;5.38;1.85;;;;;;;27.47;28.08;99597.88;4848683;29;20044;-80
2022/07/16 11:32:26;;;;;;;2.95;1.35;;;;;;;27.31;28.59;99593.75;4901637;29;20100;-80
2022/07/16 11:34:55;;;;;;;3.35;1.35;;;;;;;27.47;28.27;99656.66;4904068;29;20085;-79
2022/07/16 11:37:25;;;;;;;3.97;1.50;;;;;;;27.43;28.72;99660.50;4856757;29;20040;-80
2022/07/16 11:40:01;;;;;;;1.95;0.95;;;;;;;27.20;28.88;99645.38;4887358;29;20372;-79
2022/07/16 11:42:51;;;;;;;2.50;1.13;;;;;;;27.16;29.14;99657.28;4888382;29;20044;-81
2022/07/16 11:45:35;;;;;;;2.80;1.02;;;;;;;26.59;29.61;99587.09;4886141;29;20175;-80
2022/07/16 11:48:34;;;;;;;1.92;1.00;;;;;;;26.66;29.62;99568.78;4868740;29;20506;-80
2022/07/16 11:51:11;;;;;;;2.17;1.00;;;;;;;26.24;29.38;99540.03;4884651;29;20059;-80
2022/07/16 11:53:40;;;;;;;0.98;0.80;;;;;;;26.29;29.59;99569.88;4874658;29;20048;-81
2022/07/16 11:56:32;;;;;;;1.30;0.93;;;;;;;26.81;29.91;99658.28;4883816;29;20095;-82
2022/07/16 11:58:59;;;;;;;2.50;1.00;;;;;;;26.55;29.89;99638.97;4869527;29;20084;-83
2022/07/16 12:01:40;;;;;;;3.38;0.88;;;;;;;26.46;29.84;99673.41;4885605;29;20099;-80
2022/07/16 12:04:10;;;;;;;1.17;0.98;;;;;;;25.69;30.00;99557.50;4864629;29;20044;-80
2022/07/16 12:06:51;;;;;;;3.38;1.10;;;;;;;25.55;30.85;99512.44;4899268;29;20185;-81
2022/07/16 12:09:43;;;;;;;2.47;1.23;;;;;;;26.10;30.29;99599.72;4904641;29;20048;-82
2022/07/16 12:12:22;;;;;;;1.60;1.20;;;;;;;26.27;30.53;99643.78;4885932;29;20111;-81
2022/07/16 12:15:12;;;;;;;2.60;1.20;;;;;;;26.42;30.76;99663.94;4901232;29;20171;-83
2022/07/16 12:17:46;;;;;;;2.55;1.02;;;;;;;25.94;30.91;99581.41;4874860;29;20048;-85
2022/07/16 12:20:23;;;;;;;1.73;1.10;;;;;;;26.22;31.00;99636.16;4893063;29;20072;-84
2022/07/16 12:23:14;;;;;;;1.85;1.00;;;;;;;25.67;30.52;99593.22;4879725;29;20143;-85